createdAt,value
2018-07-08T00:01:36.578Z,13.50
2018-07-08T00:07:42.837Z,13.50
2018-07-08T00:10:50.742Z,13.50
2018-07-08T00:13:53.908Z,13.50
2018-07-08T00:16:57.141Z,13.60
2018-07-08T00:20:00.390Z,13.70
2018-07-08T00:23:03.539Z,13.80
2018-07-08T00:26:06.703Z,13.60
2018-07-08T00:29:09.865Z,13.40
2018-07-08T00:32:13.267Z,13.30
2018-07-08T00:35:16.470Z,13.30
2018-07-08T00:38:19.664Z,13.10
2018-07-08T00:41:22.824Z,13.10
2018-07-08T00:44:26.033Z,13.00
2018-07-08T00:47:29.164Z,13.00
2018-07-08T00:50:32.341Z,13.20
2018-07-08T00:53:35.531Z,13.10
2018-07-08T00:56:38.718Z,12.90
2018-07-08T00:59:41.930Z,12.80
2018-07-08T01:02:45.081Z,12.90
2018-07-08T01:05:48.240Z,12.90
2018-07-08T01:08:51.452Z,12.90
2018-07-08T01:11:54.548Z,13.00
2018-07-08T01:14:57.777Z,13.00
2018-07-08T01:18:00.924Z,13.00
2018-07-08T01:21:04.152Z,13.00
2018-07-08T01:24:07.404Z,12.70
2018-07-08T01:27:10.624Z,12.70
2018-07-08T01:30:14.808Z,12.80
2018-07-08T01:33:18.067Z,12.80
2018-07-08T01:39:24.292Z,13.00
2018-07-08T01:42:27.909Z,12.90
2018-07-08T01:45:31.147Z,12.90
2018-07-08T01:48:34.399Z,12.80
2018-07-08T01:51:37.613Z,12.90
2018-07-08T01:54:41.414Z,12.70
2018-07-08T01:57:44.648Z,12.60
2018-07-08T02:00:47.887Z,12.60
2018-07-08T02:03:52.100Z,12.70
2018-07-08T02:06:55.364Z,12.60
2018-07-08T02:09:58.584Z,12.70
2018-07-08T02:13:01.844Z,12.70
2018-07-08T02:16:05.200Z,12.70
2018-07-08T02:19:08.416Z,12.60
2018-07-08T02:22:11.698Z,12.50
2018-07-08T02:25:14.955Z,12.60
2018-07-08T02:28:18.201Z,12.70
2018-07-08T02:31:21.472Z,12.60
2018-07-08T02:34:25.021Z,12.50
2018-07-08T02:37:28.378Z,12.40
2018-07-08T02:40:31.695Z,12.40
2018-07-08T02:43:34.945Z,12.30
2018-07-08T02:46:38.388Z,12.30
2018-07-08T02:49:41.663Z,12.40
2018-07-08T02:52:44.859Z,12.40
2018-07-08T02:55:48.157Z,12.30
2018-07-08T02:58:51.391Z,12.40
2018-07-08T03:01:54.627Z,12.40
2018-07-08T03:04:58.020Z,12.50
2018-07-08T03:11:04.176Z,12.70
2018-07-08T03:14:08.339Z,12.80
2018-07-08T03:17:11.504Z,12.70
2018-07-08T03:20:14.668Z,12.80
2018-07-08T03:23:18.261Z,12.90
2018-07-08T03:26:21.391Z,12.90
2018-07-08T03:29:24.548Z,12.90
2018-07-08T03:32:27.698Z,12.90
2018-07-08T03:35:30.856Z,13.00
2018-07-08T03:38:34.137Z,13.20
2018-07-08T03:41:37.807Z,13.20
2018-07-08T03:44:41.287Z,13.10
2018-07-08T03:47:44.570Z,13.20
2018-07-08T03:50:47.939Z,13.10
2018-07-08T03:53:51.168Z,13.00
2018-07-08T03:56:54.661Z,13.10
2018-07-08T03:59:58.244Z,13.10
2018-07-08T04:03:01.691Z,13.10
2018-07-08T04:06:05.380Z,13.20
2018-07-08T04:12:12.133Z,13.50
2018-07-08T04:15:15.595Z,13.70
2018-07-08T04:18:19.050Z,13.90
2018-07-08T04:24:25.526Z,15.70
2018-07-08T04:27:28.876Z,16.90
2018-07-08T04:30:33.175Z,18.00
2018-07-08T04:33:36.439Z,19.20
2018-07-08T04:36:39.764Z,19.70
2018-07-08T04:39:43.170Z,20.40
2018-07-08T04:42:46.483Z,20.70
2018-07-08T04:45:49.788Z,20.70
2018-07-08T04:48:53.014Z,20.60
2018-07-08T04:54:59.363Z,21.70
2018-07-08T04:58:02.592Z,21.80
2018-07-08T05:01:05.803Z,21.50
2018-07-08T05:04:08.954Z,22.10
2018-07-08T05:07:12.121Z,22.30
2018-07-08T05:10:15.290Z,22.50
2018-07-08T05:13:18.423Z,22.50
2018-07-08T05:16:21.608Z,22.70
2018-07-08T05:19:24.775Z,22.50
2018-07-08T05:22:28.007Z,22.90
2018-07-08T05:25:31.176Z,23.10
2018-07-08T05:28:34.368Z,23.10
2018-07-08T05:31:37.739Z,22.80
2018-07-08T05:34:41.250Z,22.70
2018-07-08T05:37:44.434Z,22.50
2018-07-08T05:40:47.613Z,22.60
2018-07-08T05:43:50.756Z,23.40
2018-07-08T05:46:53.981Z,23.50
2018-07-08T05:49:57.175Z,23.80
2018-07-08T05:53:00.365Z,24.00
2018-07-08T05:56:03.571Z,24.40
2018-07-08T05:59:06.771Z,24.70
2018-07-08T06:02:09.931Z,24.70
2018-07-08T06:05:13.077Z,25.70
2018-07-08T06:08:16.812Z,26.40
2018-07-08T06:11:19.966Z,26.80
2018-07-08T06:14:23.144Z,27.00
2018-07-08T06:20:30.273Z,27.10
2018-07-08T06:23:33.515Z,26.50
2018-07-08T06:26:36.747Z,26.40
2018-07-08T06:29:39.895Z,26.80
2018-07-08T06:32:43.050Z,27.50
2018-07-08T06:35:46.259Z,27.00
2018-07-08T06:38:49.415Z,26.90
2018-07-08T06:41:52.568Z,26.70
2018-07-08T06:44:55.725Z,27.10
2018-07-08T06:47:58.915Z,26.70
2018-07-08T06:51:02.098Z,27.00
2018-07-08T06:54:05.469Z,26.00
2018-07-08T06:57:08.675Z,25.40
2018-07-08T07:00:11.892Z,24.70
2018-07-08T07:03:15.138Z,23.80
2018-07-08T07:06:18.360Z,24.20
2018-07-08T07:09:21.592Z,26.00
2018-07-08T07:12:24.816Z,27.30
2018-07-08T07:15:28.193Z,28.30
2018-07-08T07:18:31.465Z,28.70
2018-07-08T07:21:34.710Z,28.70
2018-07-08T07:24:38.016Z,29.60
2018-07-08T07:27:41.207Z,29.80
2018-07-08T07:30:44.433Z,29.80
2018-07-08T07:33:47.689Z,29.50
2018-07-08T07:36:50.936Z,28.80
2018-07-08T07:39:54.164Z,28.40
2018-07-08T07:42:57.398Z,28.40
2018-07-08T07:46:01.258Z,28.60
2018-07-08T07:49:04.819Z,29.20
2018-07-08T07:52:08.196Z,29.50
2018-07-08T07:55:11.396Z,29.90
2018-07-08T07:58:14.568Z,30.10
2018-07-08T08:01:17.832Z,29.90
2018-07-08T08:04:21.007Z,29.90
2018-07-08T08:07:24.210Z,29.30
2018-07-08T08:10:27.413Z,29.90
2018-07-08T08:13:30.591Z,30.20
2018-07-08T08:16:33.867Z,30.00
2018-07-08T08:19:37.124Z,31.00
2018-07-08T08:22:40.331Z,32.00
2018-07-08T08:25:43.550Z,31.70
2018-07-08T08:28:46.764Z,31.70
2018-07-08T08:31:49.923Z,32.00
2018-07-08T08:34:56.200Z,31.50
2018-07-08T08:37:59.363Z,30.60
2018-07-08T08:41:02.540Z,30.20
2018-07-08T08:44:05.954Z,31.50
2018-07-08T08:47:09.102Z,32.30
2018-07-08T08:50:12.945Z,31.80
2018-07-08T08:53:16.282Z,31.30
2018-07-08T08:56:19.472Z,31.00
2018-07-08T08:59:22.684Z,30.90
2018-07-08T09:02:25.900Z,30.70
2018-07-08T09:05:29.108Z,30.90
2018-07-08T09:08:32.307Z,30.90
2018-07-08T09:11:35.509Z,30.30
2018-07-08T09:14:39.135Z,30.30
2018-07-08T09:17:42.339Z,29.50
2018-07-08T09:20:45.563Z,29.60
2018-07-08T09:23:48.841Z,30.10
2018-07-08T09:26:52.039Z,30.90
2018-07-08T09:29:55.256Z,31.10
2018-07-08T09:32:58.481Z,31.10
2018-07-08T09:36:01.683Z,30.90
2018-07-08T09:39:06.947Z,30.20
2018-07-08T09:42:10.129Z,29.60
2018-07-08T09:48:16.310Z,29.20
2018-07-08T09:51:19.567Z,29.90
2018-07-08T09:54:22.784Z,30.20
2018-07-08T09:57:25.995Z,30.90
2018-07-08T10:00:29.244Z,29.60
2018-07-08T10:03:34.115Z,28.00
2018-07-08T10:06:37.312Z,27.70
2018-07-08T10:09:40.528Z,28.70
2018-07-08T10:12:43.755Z,28.70
2018-07-08T10:15:46.956Z,29.00
2018-07-08T10:18:50.159Z,29.00
2018-07-08T10:21:53.378Z,29.70
2018-07-08T10:24:56.571Z,30.40
2018-07-08T10:28:14.754Z,30.50
2018-07-08T10:31:21.223Z,29.90
2018-07-08T10:34:24.432Z,29.00
2018-07-08T10:37:27.696Z,28.60
2018-07-08T10:40:31.092Z,28.60
2018-07-08T10:43:34.633Z,29.00
2018-07-08T10:49:40.831Z,29.70
2018-07-08T10:52:43.988Z,30.20
2018-07-08T10:55:47.212Z,29.40
2018-07-08T10:58:50.432Z,28.40
2018-07-08T11:01:53.731Z,27.60
2018-07-08T11:04:56.952Z,28.00
2018-07-08T11:08:00.152Z,28.70
2018-07-08T11:11:03.376Z,29.60
2018-07-08T11:14:06.591Z,30.00
2018-07-08T11:17:09.795Z,30.50
2018-07-08T11:20:13.103Z,30.20
2018-07-08T11:23:16.399Z,29.30
2018-07-08T11:29:22.682Z,26.90
2018-07-08T11:32:25.961Z,26.70
2018-07-08T11:35:29.202Z,27.30
2018-07-08T11:38:32.415Z,28.50
2018-07-08T11:41:35.756Z,29.30
2018-07-08T11:44:39.071Z,29.50
2018-07-08T11:47:42.326Z,28.90
2018-07-08T11:50:45.607Z,28.40
2018-07-08T11:53:48.839Z,27.90
2018-07-08T11:56:52.670Z,27.60
2018-07-08T11:59:55.948Z,27.00
2018-07-08T12:02:59.249Z,27.20
2018-07-08T12:06:02.463Z,27.10
2018-07-08T12:09:06.372Z,26.60
2018-07-08T12:12:09.579Z,26.50
2018-07-08T12:15:12.860Z,26.40
2018-07-08T12:18:16.145Z,26.10
2018-07-08T12:21:19.496Z,25.90
2018-07-08T12:24:22.675Z,26.10
2018-07-08T12:30:28.947Z,26.60
2018-07-08T12:33:32.200Z,27.00
2018-07-08T12:39:38.366Z,27.60
2018-07-08T12:42:41.591Z,26.70
2018-07-08T12:45:44.883Z,25.80
2018-07-08T12:48:48.187Z,25.30
2018-07-08T12:51:51.396Z,25.30
2018-07-08T12:54:54.635Z,25.40
2018-07-08T12:57:57.855Z,25.60
2018-07-08T13:01:01.414Z,25.30
2018-07-08T13:04:04.742Z,25.50
2018-07-08T13:07:08.083Z,25.80
2018-07-08T13:10:11.329Z,26.10
2018-07-08T13:13:14.606Z,26.40
2018-07-08T13:16:18.018Z,26.50
2018-07-08T13:19:21.528Z,26.50
2018-07-08T13:22:26.253Z,26.40
2018-07-08T13:25:29.571Z,26.40
2018-07-08T13:28:33.064Z,26.70
2018-07-08T13:31:36.747Z,26.30
2018-07-08T13:34:40.158Z,25.70
2018-07-08T13:37:43.427Z,25.50
2018-07-08T13:40:46.715Z,25.40
2018-07-08T13:43:49.942Z,25.60
2018-07-08T13:46:53.643Z,25.80
2018-07-08T13:49:56.976Z,25.70
2018-07-08T13:53:00.201Z,25.40
2018-07-08T13:56:03.423Z,25.10
2018-07-08T14:02:09.882Z,25.10
2018-07-08T14:05:13.117Z,25.40
2018-07-08T14:08:16.834Z,25.60
2018-07-08T14:11:20.037Z,25.50
2018-07-08T14:14:23.297Z,25.20
2018-07-08T14:20:29.620Z,25.40
2018-07-08T14:23:33.368Z,25.80
2018-07-08T14:26:36.561Z,26.20
2018-07-08T14:29:40.060Z,26.40
2018-07-08T14:32:43.504Z,26.30
2018-07-08T14:38:49.635Z,24.80
2018-07-08T14:41:53.204Z,24.70
2018-07-08T14:44:56.369Z,24.90
2018-07-08T14:47:59.548Z,25.10
2018-07-08T14:51:02.721Z,25.30
2018-07-08T14:54:05.891Z,25.40
2018-07-08T14:57:09.069Z,25.30
2018-07-08T15:00:12.279Z,25.20
2018-07-08T15:03:15.443Z,25.20
2018-07-08T15:06:18.720Z,25.00
2018-07-08T15:09:21.886Z,25.00
2018-07-08T15:12:25.056Z,24.80
2018-07-08T15:15:28.269Z,24.90
2018-07-08T15:18:31.564Z,24.70
2018-07-08T15:21:34.788Z,24.70
2018-07-08T15:24:37.980Z,24.60
2018-07-08T15:27:41.152Z,24.90
2018-07-08T15:30:44.315Z,25.00
2018-07-08T15:33:48.319Z,25.00
2018-07-08T15:36:51.475Z,24.90
2018-07-08T15:39:54.731Z,25.00
2018-07-08T15:42:57.927Z,25.00
2018-07-08T15:46:01.087Z,24.80
2018-07-08T15:49:04.308Z,24.70
2018-07-08T15:52:07.868Z,24.80
2018-07-08T15:55:11.081Z,24.80
2018-07-08T15:58:14.271Z,24.80
2018-07-08T16:01:17.449Z,24.80
2018-07-08T16:04:20.613Z,24.40
2018-07-08T16:07:23.800Z,24.30
2018-07-08T16:10:26.963Z,24.40
2018-07-08T16:13:30.132Z,24.40
2018-07-08T16:16:33.339Z,24.50
2018-07-08T16:19:36.561Z,24.50
2018-07-08T16:22:39.930Z,24.50
2018-07-08T16:25:43.120Z,24.60
2018-07-08T16:28:46.295Z,24.60
2018-07-08T16:31:49.594Z,24.50
2018-07-08T16:34:52.859Z,24.50
2018-07-08T16:37:56.032Z,24.40
2018-07-08T16:44:08.968Z,24.40
2018-07-08T16:47:13.396Z,24.40
2018-07-08T16:50:16.622Z,24.10
2018-07-08T16:53:19.958Z,24.00
2018-07-08T16:56:23.250Z,24.10
2018-07-08T16:59:26.348Z,24.10
2018-07-08T17:02:29.867Z,24.10
2018-07-08T17:05:33.094Z,24.00
2018-07-08T17:11:39.483Z,24.00
2018-07-08T17:14:42.736Z,24.10
2018-07-08T17:17:45.902Z,24.10
2018-07-08T17:20:49.331Z,24.00
2018-07-08T17:23:52.499Z,24.00
2018-07-08T17:26:55.674Z,24.00
2018-07-08T17:33:01.890Z,23.80
2018-07-08T17:36:05.140Z,23.70
2018-07-08T17:39:08.471Z,23.60
2018-07-08T17:42:12.131Z,23.50
2018-07-08T17:45:15.747Z,23.40
2018-07-08T17:48:18.908Z,23.30
2018-07-08T17:51:22.062Z,23.30
2018-07-08T17:54:25.223Z,23.20
2018-07-08T17:57:28.405Z,23.20
2018-07-08T18:00:31.551Z,23.20
2018-07-08T18:03:34.698Z,23.20
2018-07-08T18:06:37.865Z,23.20
2018-07-08T18:09:41.007Z,23.00
2018-07-08T18:12:44.244Z,23.00
2018-07-08T18:15:47.809Z,22.90
2018-07-08T18:18:51.883Z,22.80
2018-07-08T18:21:55.252Z,22.70
2018-07-08T18:24:58.407Z,22.60
2018-07-08T18:28:01.563Z,22.60
2018-07-08T18:34:08.287Z,22.40
2018-07-08T18:37:11.468Z,22.30
2018-07-08T18:40:15.187Z,22.10
2018-07-08T18:43:18.359Z,22.00
2018-07-08T18:46:21.908Z,22.00
2018-07-08T18:49:25.008Z,21.90
2018-07-08T18:52:28.212Z,21.80
2018-07-08T18:55:31.457Z,21.70
2018-07-08T18:58:35.178Z,21.60
2018-07-08T19:01:38.459Z,21.50
2018-07-08T19:04:41.783Z,21.30
2018-07-08T19:07:45.105Z,21.30
2018-07-08T19:10:48.526Z,21.10
2018-07-08T19:13:51.835Z,21.10
2018-07-08T19:16:55.038Z,21.10
2018-07-08T19:19:58.366Z,20.80
2018-07-08T19:23:01.697Z,20.80
2018-07-08T19:26:05.108Z,20.70
2018-07-08T19:29:08.323Z,20.60
2018-07-08T19:32:11.612Z,20.50
2018-07-08T19:35:14.991Z,20.40
2018-07-08T19:38:18.287Z,20.40
2018-07-08T19:41:21.511Z,20.40
2018-07-08T19:47:27.739Z,20.10
2018-07-08T19:50:31.004Z,20.00
2018-07-08T19:53:34.179Z,19.80
2018-07-08T19:56:37.335Z,19.80
2018-07-08T19:59:40.496Z,19.70
2018-07-08T20:02:43.655Z,19.50
2018-07-08T20:05:46.805Z,19.50
2018-07-08T20:08:50.044Z,19.40
2018-07-08T20:11:53.200Z,19.40
2018-07-08T20:14:56.388Z,19.20
2018-07-08T20:17:59.567Z,19.10
2018-07-08T20:21:02.836Z,19.00
2018-07-08T20:24:05.932Z,18.90
2018-07-08T20:27:09.120Z,18.90
2018-07-08T20:30:12.316Z,18.90
2018-07-08T20:33:15.480Z,18.70
2018-07-08T20:36:18.663Z,18.70
2018-07-08T20:39:21.859Z,18.60
2018-07-08T20:42:25.021Z,18.40
2018-07-08T20:45:28.219Z,18.40
2018-07-08T20:48:31.444Z,18.40
2018-07-08T20:51:34.947Z,18.30
2018-07-08T20:54:38.160Z,18.20
2018-07-08T20:57:41.308Z,18.00
2018-07-08T21:00:44.503Z,18.00
2018-07-08T21:03:47.636Z,18.00
2018-07-08T21:06:50.887Z,17.90
2018-07-08T21:09:54.051Z,17.80
2018-07-08T21:12:57.217Z,17.60
2018-07-08T21:16:00.455Z,17.70
2018-07-08T21:19:04.720Z,17.60
2018-07-08T21:22:07.866Z,17.60
2018-07-08T21:25:11.060Z,17.50
2018-07-08T21:28:14.251Z,17.40
2018-07-08T21:31:17.466Z,17.40
2018-07-08T21:34:20.604Z,17.30
2018-07-08T21:37:24.307Z,17.30
2018-07-08T21:40:27.500Z,17.10
2018-07-08T21:43:30.856Z,17.00
2018-07-08T21:46:34.110Z,17.10
2018-07-08T21:49:37.344Z,17.00
2018-07-08T21:52:40.563Z,17.00
2018-07-08T21:55:43.752Z,16.90
2018-07-08T21:58:46.957Z,16.80
2018-07-08T22:01:56.743Z,16.90
2018-07-08T22:04:59.932Z,16.80
2018-07-08T22:08:03.660Z,16.70
2018-07-08T22:11:08.279Z,16.70
2018-07-08T22:14:11.688Z,16.60
2018-07-08T22:17:14.911Z,16.50
2018-07-08T22:20:18.085Z,16.40
2018-07-08T22:23:21.464Z,16.30
2018-07-08T22:26:24.615Z,16.30
2018-07-08T22:29:27.771Z,16.30
2018-07-08T22:32:30.972Z,16.20
2018-07-08T22:35:34.123Z,16.00
2018-07-08T22:38:37.296Z,15.90
2018-07-08T22:41:40.604Z,15.80
2018-07-08T22:44:43.747Z,15.90
2018-07-08T22:47:46.947Z,15.90
2018-07-08T22:50:50.135Z,15.80
2018-07-08T22:53:53.951Z,15.60
2018-07-08T22:56:57.198Z,15.60
2018-07-08T23:00:11.732Z,15.40
2018-07-08T23:03:24.740Z,15.40
2018-07-08T23:06:28.008Z,15.50
2018-07-08T23:09:31.279Z,15.30
2018-07-08T23:12:34.743Z,15.20
2018-07-08T23:15:38.097Z,15.20
2018-07-08T23:18:41.371Z,15.10
2018-07-08T23:21:44.583Z,15.10
2018-07-08T23:24:47.795Z,15.00
2018-07-08T23:27:51.051Z,14.90
2018-07-08T23:30:54.247Z,14.90
2018-07-08T23:33:57.467Z,14.90
2018-07-08T23:37:00.705Z,14.90
2018-07-08T23:40:04.077Z,14.90
2018-07-08T23:43:07.665Z,14.90
2018-07-08T23:46:10.889Z,14.90
2018-07-08T23:49:14.179Z,14.90
2018-07-08T23:52:17.484Z,14.80
2018-07-08T23:55:21.015Z,14.80
2018-07-08T23:58:24.163Z,14.80
